sensor_id;sensor_type;location;lat;lon;timestamp;P1;durP1;ratioP1;P2;durP2;ratioP2
21999;SDS011;11164;48.818;2.322;2022-09-17T00:02:17;2.83;;;1.00;;
21999;SDS011;11164;48.818;2.322;2022-09-17T00:04:42;3.70;;;1.00;;
21999;SDS011;11164;48.818;2.322;2022-09-17T00:07:07;3.17;;;1.20;;
21999;SDS011;11164;48.818;2.322;2022-09-17T00:09:33;2.90;;;1.17;;
21999;SDS011;11164;48.818;2.322;2022-09-17T00:11:58;3.75;;;1.50;;
21999;SDS011;11164;48.818;2.322;2022-09-17T00:14:23;4.25;;;1.38;;
21999;SDS011;11164;48.818;2.322;2022-09-17T00:16:49;4.57;;;1.25;;
21999;SDS011;11164;48.818;2.322;2022-09-17T00:19:18;4.85;;;1.20;;
21999;SDS011;11164;48.818;2.322;2022-09-17T00:21:45;5.22;;;1.10;;
21999;SDS011;11164;48.818;2.322;2022-09-17T00:24:12;1.98;;;0.98;;
21999;SDS011;11164;48.818;2.322;2022-09-17T00:26:38;5.20;;;1.23;;
21999;SDS011;11164;48.818;2.322;2022-09-17T00:29:04;3.60;;;0.93;;
21999;SDS011;11164;48.818;2.322;2022-09-17T00:31:30;4.80;;;1.17;;
21999;SDS011;11164;48.818;2.322;2022-09-17T00:33:55;3.92;;;1.05;;
21999;SDS011;11164;48.818;2.322;2022-09-17T00:36:22;4.78;;;1.10;;
21999;SDS011;11164;48.818;2.322;2022-09-17T00:38:51;2.45;;;1.10;;
21999;SDS011;11164;48.818;2.322;2022-09-17T00:41:18;3.33;;;1.00;;
21999;SDS011;11164;48.818;2.322;2022-09-17T00:43:46;6.03;;;1.25;;
21999;SDS011;11164;48.818;2.322;2022-09-17T00:49:01;3.00;;;0.95;;
21999;SDS011;11164;48.818;2.322;2022-09-17T00:51:35;4.25;;;1.00;;
21999;SDS011;11164;48.818;2.322;2022-09-17T00:54:04;3.85;;;1.20;;
21999;SDS011;11164;48.818;2.322;2022-09-17T00:56:31;2.60;;;0.98;;
21999;SDS011;11164;48.818;2.322;2022-09-17T00:59:02;5.15;;;1.30;;
21999;SDS011;11164;48.818;2.322;2022-09-17T01:01:28;6.60;;;1.20;;
21999;SDS011;11164;48.818;2.322;2022-09-17T01:03:54;4.80;;;0.93;;
21999;SDS011;11164;48.818;2.322;2022-09-17T01:17:16;3.13;;;1.10;;
21999;SDS011;11164;48.818;2.322;2022-09-17T01:25:21;4.00;;;1.08;;
21999;SDS011;11164;48.818;2.322;2022-09-17T01:38:26;5.55;;;1.20;;
21999;SDS011;11164;48.818;2.322;2022-09-17T01:41:20;4.25;;;1.65;;
21999;SDS011;11164;48.818;2.322;2022-09-17T01:44:12;2.85;;;1.00;;
21999;SDS011;11164;48.818;2.322;2022-09-17T01:46:48;4.43;;;0.90;;
21999;SDS011;11164;48.818;2.322;2022-09-17T01:51:46;3.60;;;0.73;;
21999;SDS011;11164;48.818;2.322;2022-09-17T01:54:19;3.58;;;1.17;;
21999;SDS011;11164;48.818;2.322;2022-09-17T01:59:17;6.30;;;0.90;;
21999;SDS011;11164;48.818;2.322;2022-09-17T02:01:47;5.60;;;1.17;;
21999;SDS011;11164;48.818;2.322;2022-09-17T02:04:35;5.72;;;1.00;;
21999;SDS011;11164;48.818;2.322;2022-09-17T02:07:07;4.93;;;1.00;;
21999;SDS011;11164;48.818;2.322;2022-09-17T02:09:44;3.58;;;0.82;;
21999;SDS011;11164;48.818;2.322;2022-09-17T02:12:17;3.15;;;0.95;;
21999;SDS011;11164;48.818;2.322;2022-09-17T02:14:51;5.10;;;0.90;;
21999;SDS011;11164;48.818;2.322;2022-09-17T02:20:26;4.25;;;1.30;;
21999;SDS011;11164;48.818;2.322;2022-09-17T02:23:00;7.00;;;1.08;;
21999;SDS011;11164;48.818;2.322;2022-09-17T02:25:43;4.25;;;1.17;;
21999;SDS011;11164;48.818;2.322;2022-09-17T02:28:39;6.53;;;1.20;;
21999;SDS011;11164;48.818;2.322;2022-09-17T02:31:06;4.60;;;0.98;;
21999;SDS011;11164;48.818;2.322;2022-09-17T02:33:32;4.68;;;1.00;;
21999;SDS011;11164;48.818;2.322;2022-09-17T02:36:00;3.95;;;1.20;;
21999;SDS011;11164;48.818;2.322;2022-09-17T02:38:27;7.90;;;1.13;;
21999;SDS011;11164;48.818;2.322;2022-09-17T02:41:02;6.28;;;1.40;;
21999;SDS011;11164;48.818;2.322;2022-09-17T02:46:34;5.72;;;1.20;;
21999;SDS011;11164;48.818;2.322;2022-09-17T02:51:34;8.88;;;1.00;;
21999;SDS011;11164;48.818;2.322;2022-09-17T02:54:17;3.88;;;0.90;;
21999;SDS011;11164;48.818;2.322;2022-09-17T02:59:42;4.80;;;1.10;;
21999;SDS011;11164;48.818;2.322;2022-09-17T03:03:18;5.35;;;1.00;;
21999;SDS011;11164;48.818;2.322;2022-09-17T03:05:20;4.18;;;0.70;;
21999;SDS011;11164;48.818;2.322;2022-09-17T03:07:47;4.28;;;1.10;;
21999;SDS011;11164;48.818;2.322;2022-09-17T03:10:12;5.88;;;1.15;;
21999;SDS011;11164;48.818;2.322;2022-09-17T03:12:39;6.35;;;1.20;;
21999;SDS011;11164;48.818;2.322;2022-09-17T03:15:05;4.63;;;1.00;;
21999;SDS011;11164;48.818;2.322;2022-09-17T03:17:31;5.38;;;1.50;;
21999;SDS011;11164;48.818;2.322;2022-09-17T03:19:56;3.75;;;1.02;;
21999;SDS011;11164;48.818;2.322;2022-09-17T03:22:21;4.28;;;1.23;;
21999;SDS011;11164;48.818;2.322;2022-09-17T03:24:48;9.02;;;1.33;;
21999;SDS011;11164;48.818;2.322;2022-09-17T03:27:14;6.20;;;1.27;;
21999;SDS011;11164;48.818;2.322;2022-09-17T03:29:39;4.72;;;1.00;;
21999;SDS011;11164;48.818;2.322;2022-09-17T03:32:04;6.80;;;0.98;;
21999;SDS011;11164;48.818;2.322;2022-09-17T03:34:30;5.40;;;1.17;;
21999;SDS011;11164;48.818;2.322;2022-09-17T03:36:55;4.05;;;1.35;;
21999;SDS011;11164;48.818;2.322;2022-09-17T03:39:21;4.65;;;1.05;;
21999;SDS011;11164;48.818;2.322;2022-09-17T03:41:47;3.83;;;1.05;;
21999;SDS011;11164;48.818;2.322;2022-09-17T03:44:12;5.07;;;1.13;;
21999;SDS011;11164;48.818;2.322;2022-09-17T03:46:39;4.40;;;1.17;;
21999;SDS011;11164;48.818;2.322;2022-09-17T03:49:05;4.38;;;1.08;;
21999;SDS011;11164;48.818;2.322;2022-09-17T03:51:30;3.20;;;1.00;;
21999;SDS011;11164;48.818;2.322;2022-09-17T03:53:55;6.47;;;1.00;;
21999;SDS011;11164;48.818;2.322;2022-09-17T03:56:21;4.22;;;1.10;;
21999;SDS011;11164;48.818;2.322;2022-09-17T03:58:46;4.95;;;1.08;;
21999;SDS011;11164;48.818;2.322;2022-09-17T04:01:11;4.93;;;1.30;;
21999;SDS011;11164;48.818;2.322;2022-09-17T04:03:37;5.30;;;1.10;;
21999;SDS011;11164;48.818;2.322;2022-09-17T04:06:03;4.50;;;1.00;;
21999;SDS011;11164;48.818;2.322;2022-09-17T04:08:28;4.10;;;1.00;;
21999;SDS011;11164;48.818;2.322;2022-09-17T04:10:54;5.60;;;1.02;;
21999;SDS011;11164;48.818;2.322;2022-09-17T04:13:19;2.83;;;0.90;;
21999;SDS011;11164;48.818;2.322;2022-09-17T04:15:45;3.72;;;1.05;;
21999;SDS011;11164;48.818;2.322;2022-09-17T04:18:11;4.65;;;1.10;;
21999;SDS011;11164;48.818;2.322;2022-09-17T04:20:37;6.00;;;1.02;;
21999;SDS011;11164;48.818;2.322;2022-09-17T04:23:03;6.70;;;1.30;;
21999;SDS011;11164;48.818;2.322;2022-09-17T04:25:31;7.43;;;1.27;;
21999;SDS011;11164;48.818;2.322;2022-09-17T04:27:56;3.17;;;1.13;;
21999;SDS011;11164;48.818;2.322;2022-09-17T04:30:22;4.97;;;1.05;;
21999;SDS011;11164;48.818;2.322;2022-09-17T04:32:47;4.38;;;0.85;;
21999;SDS011;11164;48.818;2.322;2022-09-17T04:35:13;5.03;;;0.90;;
21999;SDS011;11164;48.818;2.322;2022-09-17T04:37:39;4.55;;;1.10;;
21999;SDS011;11164;48.818;2.322;2022-09-17T04:40:05;4.80;;;1.15;;
21999;SDS011;11164;48.818;2.322;2022-09-17T04:42:31;4.32;;;1.17;;
21999;SDS011;11164;48.818;2.322;2022-09-17T04:44:56;3.25;;;1.20;;
21999;SDS011;11164;48.818;2.322;2022-09-17T04:47:22;5.75;;;1.10;;
21999;SDS011;11164;48.818;2.322;2022-09-17T04:49:48;3.72;;;1.02;;
21999;SDS011;11164;48.818;2.322;2022-09-17T04:52:13;3.38;;;1.10;;
21999;SDS011;11164;48.818;2.322;2022-09-17T04:54:39;4.20;;;0.95;;
21999;SDS011;11164;48.818;2.322;2022-09-17T04:57:04;4.30;;;1.05;;
21999;SDS011;11164;48.818;2.322;2022-09-17T04:59:30;6.55;;;1.58;;
21999;SDS011;11164;48.818;2.322;2022-09-17T05:01:55;3.03;;;1.15;;
21999;SDS011;11164;48.818;2.322;2022-09-17T05:04:21;3.15;;;1.08;;
21999;SDS011;11164;48.818;2.322;2022-09-17T05:06:46;5.28;;;1.13;;
21999;SDS011;11164;48.818;2.322;2022-09-17T05:09:11;5.40;;;1.00;;
21999;SDS011;11164;48.818;2.322;2022-09-17T05:11:37;8.23;;;1.20;;
21999;SDS011;11164;48.818;2.322;2022-09-17T05:14:02;2.53;;;0.70;;
21999;SDS011;11164;48.818;2.322;2022-09-17T05:16:27;4.90;;;1.25;;
21999;SDS011;11164;48.818;2.322;2022-09-17T05:18:53;5.03;;;0.88;;
21999;SDS011;11164;48.818;2.322;2022-09-17T05:21:18;5.15;;;1.23;;
21999;SDS011;11164;48.818;2.322;2022-09-17T05:23:44;4.82;;;1.50;;
21999;SDS011;11164;48.818;2.322;2022-09-17T05:26:10;5.32;;;1.30;;
21999;SDS011;11164;48.818;2.322;2022-09-17T05:28:35;6.07;;;1.45;;
21999;SDS011;11164;48.818;2.322;2022-09-17T05:31:01;4.22;;;1.05;;
21999;SDS011;11164;48.818;2.322;2022-09-17T05:33:26;5.88;;;1.40;;
21999;SDS011;11164;48.818;2.322;2022-09-17T05:35:52;2.88;;;1.00;;
21999;SDS011;11164;48.818;2.322;2022-09-17T05:38:18;4.60;;;1.20;;
21999;SDS011;11164;48.818;2.322;2022-09-17T05:40:43;9.02;;;1.30;;
21999;SDS011;11164;48.818;2.322;2022-09-17T05:43:09;5.60;;;1.30;;
21999;SDS011;11164;48.818;2.322;2022-09-17T05:45:35;3.97;;;1.30;;
21999;SDS011;11164;48.818;2.322;2022-09-17T05:48:02;3.47;;;1.02;;
21999;SDS011;11164;48.818;2.322;2022-09-17T05:50:29;3.30;;;1.30;;
21999;SDS011;11164;48.818;2.322;2022-09-17T05:52:55;3.65;;;1.13;;
21999;SDS011;11164;48.818;2.322;2022-09-17T05:55:21;6.25;;;1.40;;
21999;SDS011;11164;48.818;2.322;2022-09-17T05:57:48;7.63;;;1.60;;
21999;SDS011;11164;48.818;2.322;2022-09-17T06:00:14;5.20;;;1.40;;
21999;SDS011;11164;48.818;2.322;2022-09-17T06:02:40;6.72;;;1.20;;
21999;SDS011;11164;48.818;2.322;2022-09-17T06:05:05;3.60;;;1.33;;
21999;SDS011;11164;48.818;2.322;2022-09-17T06:07:33;5.43;;;1.33;;
21999;SDS011;11164;48.818;2.322;2022-09-17T06:10:00;5.25;;;1.20;;
21999;SDS011;11164;48.818;2.322;2022-09-17T06:12:25;7.15;;;1.30;;
21999;SDS011;11164;48.818;2.322;2022-09-17T06:14:51;4.35;;;1.30;;
21999;SDS011;11164;48.818;2.322;2022-09-17T06:17:16;5.70;;;1.40;;
21999;SDS011;11164;48.818;2.322;2022-09-17T06:19:41;5.63;;;1.10;;
21999;SDS011;11164;48.818;2.322;2022-09-17T06:22:07;4.32;;;1.10;;
21999;SDS011;11164;48.818;2.322;2022-09-17T06:24:32;4.65;;;1.20;;
21999;SDS011;11164;48.818;2.322;2022-09-17T06:26:57;4.57;;;1.30;;
21999;SDS011;11164;48.818;2.322;2022-09-17T06:29:22;4.93;;;1.10;;
21999;SDS011;11164;48.818;2.322;2022-09-17T06:31:48;4.72;;;1.17;;
21999;SDS011;11164;48.818;2.322;2022-09-17T06:34:14;6.43;;;1.30;;
21999;SDS011;11164;48.818;2.322;2022-09-17T06:36:39;6.85;;;1.50;;
21999;SDS011;11164;48.818;2.322;2022-09-17T06:39:05;4.28;;;1.08;;
21999;SDS011;11164;48.818;2.322;2022-09-17T06:41:30;4.43;;;1.20;;
21999;SDS011;11164;48.818;2.322;2022-09-17T06:43:57;5.45;;;1.20;;
21999;SDS011;11164;48.818;2.322;2022-09-17T06:46:24;7.82;;;1.48;;
21999;SDS011;11164;48.818;2.322;2022-09-17T06:48:49;7.00;;;1.65;;
21999;SDS011;11164;48.818;2.322;2022-09-17T06:51:14;8.10;;;1.38;;
21999;SDS011;11164;48.818;2.322;2022-09-17T06:53:40;3.97;;;1.10;;
21999;SDS011;11164;48.818;2.322;2022-09-17T06:56:06;7.53;;;1.33;;
21999;SDS011;11164;48.818;2.322;2022-09-17T06:58:33;6.05;;;1.25;;
21999;SDS011;11164;48.818;2.322;2022-09-17T07:01:01;4.47;;;1.30;;
21999;SDS011;11164;48.818;2.322;2022-09-17T07:03:28;4.40;;;1.10;;
21999;SDS011;11164;48.818;2.322;2022-09-17T07:05:55;6.07;;;1.13;;
21999;SDS011;11164;48.818;2.322;2022-09-17T07:08:21;6.25;;;1.30;;
21999;SDS011;11164;48.818;2.322;2022-09-17T07:10:46;8.50;;;1.15;;
21999;SDS011;11164;48.818;2.322;2022-09-17T07:13:12;5.10;;;1.02;;
21999;SDS011;11164;48.818;2.322;2022-09-17T07:15:37;5.63;;;1.20;;
21999;SDS011;11164;48.818;2.322;2022-09-17T07:18:09;6.70;;;1.50;;
21999;SDS011;11164;48.818;2.322;2022-09-17T07:20:35;5.00;;;1.20;;
21999;SDS011;11164;48.818;2.322;2022-09-17T07:23:02;5.45;;;1.10;;
21999;SDS011;11164;48.818;2.322;2022-09-17T07:25:27;5.28;;;1.10;;
21999;SDS011;11164;48.818;2.322;2022-09-17T07:27:53;6.40;;;1.17;;
21999;SDS011;11164;48.818;2.322;2022-09-17T07:30:18;6.32;;;1.05;;
21999;SDS011;11164;48.818;2.322;2022-09-17T07:32:44;5.78;;;1.10;;
21999;SDS011;11164;48.818;2.322;2022-09-17T07:35:10;5.25;;;1.25;;
21999;SDS011;11164;48.818;2.322;2022-09-17T07:37:36;6.43;;;1.20;;
21999;SDS011;11164;48.818;2.322;2022-09-17T07:40:01;6.68;;;1.15;;
21999;SDS011;11164;48.818;2.322;2022-09-17T07:42:27;6.65;;;1.08;;
21999;SDS011;11164;48.818;2.322;2022-09-17T07:44:52;5.32;;;1.25;;
21999;SDS011;11164;48.818;2.322;2022-09-17T07:47:18;3.83;;;1.35;;
21999;SDS011;11164;48.818;2.322;2022-09-17T07:49:44;6.88;;;1.10;;
21999;SDS011;11164;48.818;2.322;2022-09-17T07:52:09;4.25;;;1.00;;
21999;SDS011;11164;48.818;2.322;2022-09-17T07:54:35;5.00;;;1.00;;
21999;SDS011;11164;48.818;2.322;2022-09-17T07:57:03;8.00;;;1.00;;
21999;SDS011;11164;48.818;2.322;2022-09-17T07:59:29;4.13;;;1.40;;
21999;SDS011;11164;48.818;2.322;2022-09-17T08:01:55;8.93;;;1.38;;
21999;SDS011;11164;48.818;2.322;2022-09-17T08:04:20;7.20;;;1.23;;
21999;SDS011;11164;48.818;2.322;2022-09-17T08:06:46;5.55;;;1.00;;
21999;SDS011;11164;48.818;2.322;2022-09-17T08:09:14;7.45;;;0.90;;
21999;SDS011;11164;48.818;2.322;2022-09-17T08:11:42;6.10;;;1.20;;
21999;SDS011;11164;48.818;2.322;2022-09-17T08:14:12;4.68;;;1.13;;
21999;SDS011;11164;48.818;2.322;2022-09-17T08:16:39;4.32;;;1.10;;
21999;SDS011;11164;48.818;2.322;2022-09-17T08:19:05;5.13;;;1.10;;
21999;SDS011;11164;48.818;2.322;2022-09-17T08:21:31;6.18;;;1.50;;
21999;SDS011;11164;48.818;2.322;2022-09-17T08:23:56;9.15;;;1.55;;
21999;SDS011;11164;48.818;2.322;2022-09-17T08:26:23;6.80;;;1.00;;
21999;SDS011;11164;48.818;2.322;2022-09-17T08:28:50;7.32;;;1.08;;
21999;SDS011;11164;48.818;2.322;2022-09-17T08:31:19;7.15;;;1.67;;
21999;SDS011;11164;48.818;2.322;2022-09-17T08:33:45;6.85;;;1.20;;
21999;SDS011;11164;48.818;2.322;2022-09-17T08:36:12;6.95;;;1.40;;
21999;SDS011;11164;48.818;2.322;2022-09-17T08:38:39;8.85;;;1.92;;
21999;SDS011;11164;48.818;2.322;2022-09-17T08:43:41;8.30;;;1.08;;
21999;SDS011;11164;48.818;2.322;2022-09-17T08:46:13;8.13;;;1.52;;
21999;SDS011;11164;48.818;2.322;2022-09-17T08:48:40;8.50;;;1.65;;
21999;SDS011;11164;48.818;2.322;2022-09-17T08:54:08;8.13;;;1.30;;
21999;SDS011;11164;48.818;2.322;2022-09-17T08:56:44;11.00;;;1.10;;
21999;SDS011;11164;48.818;2.322;2022-09-17T09:01:54;4.80;;;1.25;;
21999;SDS011;11164;48.818;2.322;2022-09-17T09:04:45;5.70;;;1.40;;
21999;SDS011;11164;48.818;2.322;2022-09-17T09:07:24;5.05;;;1.30;;
21999;SDS011;11164;48.818;2.322;2022-09-17T09:09:56;4.40;;;1.20;;
21999;SDS011;11164;48.818;2.322;2022-09-17T09:12:29;6.07;;;1.30;;
21999;SDS011;11164;48.818;2.322;2022-09-17T09:15:02;9.02;;;1.27;;
21999;SDS011;11164;48.818;2.322;2022-09-17T09:17:43;6.43;;;1.23;;
21999;SDS011;11164;48.818;2.322;2022-09-17T09:20:18;6.85;;;1.10;;
21999;SDS011;11164;48.818;2.322;2022-09-17T09:22:53;6.63;;;1.20;;
21999;SDS011;11164;48.818;2.322;2022-09-17T09:25:23;6.65;;;1.20;;
21999;SDS011;11164;48.818;2.322;2022-09-17T09:33:32;6.22;;;0.98;;
21999;SDS011;11164;48.818;2.322;2022-09-17T09:36:02;8.40;;;1.50;;
21999;SDS011;11164;48.818;2.322;2022-09-17T09:38:32;7.50;;;1.67;;
21999;SDS011;11164;48.818;2.322;2022-09-17T09:41:12;4.80;;;1.30;;
21999;SDS011;11164;48.818;2.322;2022-09-17T09:46:16;5.15;;;1.17;;
21999;SDS011;11164;48.818;2.322;2022-09-17T09:51:37;6.05;;;1.33;;
21999;SDS011;11164;48.818;2.322;2022-09-17T09:57:09;6.32;;;1.48;;
21999;SDS011;11164;48.818;2.322;2022-09-17T09:59:38;5.30;;;1.40;;
21999;SDS011;11164;48.818;2.322;2022-09-17T10:02:05;4.57;;;1.20;;
21999;SDS011;11164;48.818;2.322;2022-09-17T10:04:31;4.07;;;0.90;;
21999;SDS011;11164;48.818;2.322;2022-09-17T10:07:04;4.80;;;1.02;;
21999;SDS011;11164;48.818;2.322;2022-09-17T10:11:59;4.20;;;0.88;;
21999;SDS011;11164;48.818;2.322;2022-09-17T10:14:27;4.55;;;0.90;;
21999;SDS011;11164;48.818;2.322;2022-09-17T10:22:36;4.80;;;0.80;;
21999;SDS011;11164;48.818;2.322;2022-09-17T10:25:05;5.38;;;1.00;;
21999;SDS011;11164;48.818;2.322;2022-09-17T10:27:44;4.15;;;1.00;;
21999;SDS011;11164;48.818;2.322;2022-09-17T10:30:13;5.25;;;1.23;;
21999;SDS011;11164;48.818;2.322;2022-09-17T10:32:40;5.70;;;0.93;;
21999;SDS011;11164;48.818;2.322;2022-09-17T10:35:26;4.78;;;0.80;;
21999;SDS011;11164;48.818;2.322;2022-09-17T10:37:52;6.18;;;0.98;;
21999;SDS011;11164;48.818;2.322;2022-09-17T10:42:44;3.65;;;0.80;;
21999;SDS011;11164;48.818;2.322;2022-09-17T10:45:31;7.50;;;1.20;;
21999;SDS011;11164;48.818;2.322;2022-09-17T10:47:55;3.90;;;0.88;;
21999;SDS011;11164;48.818;2.322;2022-09-17T10:50:26;5.20;;;1.05;;
21999;SDS011;11164;48.818;2.322;2022-09-17T10:52:54;4.13;;;1.10;;
21999;SDS011;11164;48.818;2.322;2022-09-17T11:01:00;4.50;;;1.17;;
21999;SDS011;11164;48.818;2.322;2022-09-17T11:06:41;5.18;;;1.40;;
21999;SDS011;11164;48.818;2.322;2022-09-17T11:09:29;4.70;;;1.00;;
21999;SDS011;11164;48.818;2.322;2022-09-17T11:14:50;5.40;;;1.23;;
21999;SDS011;11164;48.818;2.322;2022-09-17T11:23:02;4.65;;;0.90;;
21999;SDS011;11164;48.818;2.322;2022-09-17T11:28:45;4.75;;;0.93;;
21999;SDS011;11164;48.818;2.322;2022-09-17T11:39:09;2.33;;;0.65;;
21999;SDS011;11164;48.818;2.322;2022-09-17T11:44:15;3.35;;;0.93;;
21999;SDS011;11164;48.818;2.322;2022-09-17T11:46:58;5.15;;;1.40;;
21999;SDS011;11164;48.818;2.322;2022-09-17T11:49:34;2.83;;;0.82;;
21999;SDS011;11164;48.818;2.322;2022-09-17T11:52:14;3.47;;;0.70;;
21999;SDS011;11164;48.818;2.322;2022-09-17T11:57:29;3.47;;;1.10;;
21999;SDS011;11164;48.818;2.322;2022-09-17T12:00:03;5.72;;;0.88;;
21999;SDS011;11164;48.818;2.322;2022-09-17T12:05:38;3.15;;;0.82;;
21999;SDS011;11164;48.818;2.322;2022-09-17T12:08:17;3.63;;;0.82;;
21999;SDS011;11164;48.818;2.322;2022-09-17T12:13:22;3.47;;;0.60;;
21999;SDS011;11164;48.818;2.322;2022-09-17T12:15:50;3.35;;;0.70;;
21999;SDS011;11164;48.818;2.322;2022-09-17T12:18:43;5.25;;;1.00;;
21999;SDS011;11164;48.818;2.322;2022-09-17T12:21:13;3.42;;;0.50;;
21999;SDS011;11164;48.818;2.322;2022-09-17T12:35:01;4.18;;;1.10;;
21999;SDS011;11164;48.818;2.322;2022-09-17T12:37:59;5.38;;;1.38;;
21999;SDS011;11164;48.818;2.322;2022-09-17T12:40:51;3.53;;;0.82;;
21999;SDS011;11164;48.818;2.322;2022-09-17T12:54:45;2.42;;;0.60;;
21999;SDS011;11164;48.818;2.322;2022-09-17T12:57:40;2.75;;;0.70;;
21999;SDS011;11164;48.818;2.322;2022-09-17T13:00:28;3.88;;;0.90;;
21999;SDS011;11164;48.818;2.322;2022-09-17T13:03:51;2.05;;;0.57;;
21999;SDS011;11164;48.818;2.322;2022-09-17T13:09:23;2.88;;;0.82;;
21999;SDS011;11164;48.818;2.322;2022-09-17T13:21:10;4.43;;;0.57;;
21999;SDS011;11164;48.818;2.322;2022-09-17T13:23:40;3.22;;;0.73;;
21999;SDS011;11164;48.818;2.322;2022-09-17T13:26:08;3.83;;;0.90;;
21999;SDS011;11164;48.818;2.322;2022-09-17T13:28:39;3.88;;;0.60;;
21999;SDS011;11164;48.818;2.322;2022-09-17T13:31:06;3.33;;;1.00;;
21999;SDS011;11164;48.818;2.322;2022-09-17T13:42:09;3.30;;;0.70;;
21999;SDS011;11164;48.818;2.322;2022-09-17T13:44:40;2.35;;;0.50;;
21999;SDS011;11164;48.818;2.322;2022-09-17T13:49:43;4.47;;;0.80;;
21999;SDS011;11164;48.818;2.322;2022-09-17T13:52:13;2.00;;;0.55;;
21999;SDS011;11164;48.818;2.322;2022-09-17T13:54:53;2.80;;;0.70;;
21999;SDS011;11164;48.818;2.322;2022-09-17T13:57:19;10.35;;;0.93;;
21999;SDS011;11164;48.818;2.322;2022-09-17T13:59:54;3.13;;;0.70;;
21999;SDS011;11164;48.818;2.322;2022-09-17T14:05:16;2.38;;;0.65;;
21999;SDS011;11164;48.818;2.322;2022-09-17T14:07:49;2.90;;;0.70;;
21999;SDS011;11164;48.818;2.322;2022-09-17T14:12:59;4.03;;;0.60;;
21999;SDS011;11164;48.818;2.322;2022-09-17T14:20:54;2.35;;;0.77;;
21999;SDS011;11164;48.818;2.322;2022-09-17T14:23:32;4.22;;;0.73;;
21999;SDS011;11164;48.818;2.322;2022-09-17T14:25:59;2.00;;;0.50;;
21999;SDS011;11164;48.818;2.322;2022-09-17T14:28:33;3.30;;;0.60;;
21999;SDS011;11164;48.818;2.322;2022-09-17T14:31:16;1.27;;;0.38;;
21999;SDS011;11164;48.818;2.322;2022-09-17T14:33:45;3.22;;;0.50;;
21999;SDS011;11164;48.818;2.322;2022-09-17T14:36:15;1.60;;;0.40;;
21999;SDS011;11164;48.818;2.322;2022-09-17T14:38:44;4.05;;;0.65;;
21999;SDS011;11164;48.818;2.322;2022-09-17T14:41:25;2.83;;;0.80;;
21999;SDS011;11164;48.818;2.322;2022-09-17T14:44:05;1.63;;;0.55;;
21999;SDS011;11164;48.818;2.322;2022-09-17T14:46:40;1.15;;;0.30;;
21999;SDS011;11164;48.818;2.322;2022-09-17T14:49:16;2.33;;;0.40;;
21999;SDS011;11164;48.818;2.322;2022-09-17T14:51:44;1.73;;;0.50;;
21999;SDS011;11164;48.818;2.322;2022-09-17T14:54:17;2.95;;;0.52;;
21999;SDS011;11164;48.818;2.322;2022-09-17T14:56:48;1.85;;;0.45;;
21999;SDS011;11164;48.818;2.322;2022-09-17T14:59:26;1.73;;;0.50;;
21999;SDS011;11164;48.818;2.322;2022-09-17T15:01:59;1.75;;;0.40;;
21999;SDS011;11164;48.818;2.322;2022-09-17T15:04:26;2.70;;;0.60;;
21999;SDS011;11164;48.818;2.322;2022-09-17T15:06:52;1.65;;;0.50;;
21999;SDS011;11164;48.818;2.322;2022-09-17T15:09:30;3.03;;;0.50;;
21999;SDS011;11164;48.818;2.322;2022-09-17T15:11:57;2.25;;;0.40;;
21999;SDS011;11164;48.818;2.322;2022-09-17T15:14:31;2.15;;;0.55;;
21999;SDS011;11164;48.818;2.322;2022-09-17T15:16:59;1.58;;;0.60;;
21999;SDS011;11164;48.818;2.322;2022-09-17T15:19:29;2.55;;;0.70;;
21999;SDS011;11164;48.818;2.322;2022-09-17T15:22:02;1.93;;;0.70;;
21999;SDS011;11164;48.818;2.322;2022-09-17T15:27:25;2.15;;;0.60;;
21999;SDS011;11164;48.818;2.322;2022-09-17T15:32:25;2.50;;;0.60;;
21999;SDS011;11164;48.818;2.322;2022-09-17T15:35:15;4.53;;;0.80;;
21999;SDS011;11164;48.818;2.322;2022-09-17T15:37:47;2.42;;;0.50;;
21999;SDS011;11164;48.818;2.322;2022-09-17T15:40:25;2.45;;;0.40;;
21999;SDS011;11164;48.818;2.322;2022-09-17T15:42:54;2.17;;;0.45;;
21999;SDS011;11164;48.818;2.322;2022-09-17T15:45:35;1.88;;;0.60;;
21999;SDS011;11164;48.818;2.322;2022-09-17T15:48:03;2.38;;;0.75;;
21999;SDS011;11164;48.818;2.322;2022-09-17T15:50:30;2.05;;;0.50;;
21999;SDS011;11164;48.818;2.322;2022-09-17T15:55:38;2.80;;;0.40;;
21999;SDS011;11164;48.818;2.322;2022-09-17T16:00:51;2.60;;;0.55;;
21999;SDS011;11164;48.818;2.322;2022-09-17T16:08:44;4.30;;;0.50;;
21999;SDS011;11164;48.818;2.322;2022-09-17T16:11:13;3.10;;;0.80;;
21999;SDS011;11164;48.818;2.322;2022-09-17T16:13:44;2.40;;;0.70;;
21999;SDS011;11164;48.818;2.322;2022-09-17T16:16:13;3.17;;;0.70;;
21999;SDS011;11164;48.818;2.322;2022-09-17T16:18:44;2.70;;;0.60;;
21999;SDS011;11164;48.818;2.322;2022-09-17T16:21:10;2.35;;;0.82;;
21999;SDS011;11164;48.818;2.322;2022-09-17T16:23:39;1.98;;;0.52;;
21999;SDS011;11164;48.818;2.322;2022-09-17T16:26:06;4.72;;;0.85;;
21999;SDS011;11164;48.818;2.322;2022-09-17T16:28:41;3.20;;;0.82;;
21999;SDS011;11164;48.818;2.322;2022-09-17T16:31:08;2.97;;;0.65;;
21999;SDS011;11164;48.818;2.322;2022-09-17T16:33:37;3.35;;;0.80;;
21999;SDS011;11164;48.818;2.322;2022-09-17T16:36:02;4.82;;;1.00;;
21999;SDS011;11164;48.818;2.322;2022-09-17T16:38:28;3.45;;;0.70;;
21999;SDS011;11164;48.818;2.322;2022-09-17T16:40:54;2.97;;;0.60;;
21999;SDS011;11164;48.818;2.322;2022-09-17T16:43:19;3.60;;;0.80;;
21999;SDS011;11164;48.818;2.322;2022-09-17T16:46:00;5.13;;;0.65;;
21999;SDS011;11164;48.818;2.322;2022-09-17T16:48:27;5.32;;;0.70;;
21999;SDS011;11164;48.818;2.322;2022-09-17T16:50:52;4.05;;;0.70;;
21999;SDS011;11164;48.818;2.322;2022-09-17T16:53:18;3.45;;;0.82;;
21999;SDS011;11164;48.818;2.322;2022-09-17T16:55:43;3.38;;;0.73;;
21999;SDS011;11164;48.818;2.322;2022-09-17T16:58:09;3.00;;;0.70;;
21999;SDS011;11164;48.818;2.322;2022-09-17T17:00:35;2.08;;;0.55;;
21999;SDS011;11164;48.818;2.322;2022-09-17T17:03:01;3.50;;;0.80;;
21999;SDS011;11164;48.818;2.322;2022-09-17T17:05:27;3.17;;;0.60;;
21999;SDS011;11164;48.818;2.322;2022-09-17T17:07:53;4.03;;;0.75;;
21999;SDS011;11164;48.818;2.322;2022-09-17T17:10:19;5.90;;;1.02;;
21999;SDS011;11164;48.818;2.322;2022-09-17T17:12:45;4.80;;;0.90;;
21999;SDS011;11164;48.818;2.322;2022-09-17T17:15:11;3.17;;;0.90;;
21999;SDS011;11164;48.818;2.322;2022-09-17T17:17:38;4.65;;;0.82;;
21999;SDS011;11164;48.818;2.322;2022-09-17T17:20:04;3.55;;;0.80;;
21999;SDS011;11164;48.818;2.322;2022-09-17T17:22:34;4.00;;;0.85;;
21999;SDS011;11164;48.818;2.322;2022-09-17T17:25:02;4.50;;;1.05;;
21999;SDS011;11164;48.818;2.322;2022-09-17T17:27:29;4.00;;;0.98;;
21999;SDS011;11164;48.818;2.322;2022-09-17T17:29:54;3.22;;;0.90;;
21999;SDS011;11164;48.818;2.322;2022-09-17T17:32:20;4.93;;;1.10;;
21999;SDS011;11164;48.818;2.322;2022-09-17T17:34:49;4.25;;;1.27;;
21999;SDS011;11164;48.818;2.322;2022-09-17T17:37:15;2.83;;;0.80;;
21999;SDS011;11164;48.818;2.322;2022-09-17T17:39:40;6.30;;;1.40;;
21999;SDS011;11164;48.818;2.322;2022-09-17T17:42:06;2.97;;;0.90;;
21999;SDS011;11164;48.818;2.322;2022-09-17T17:44:31;2.97;;;0.80;;
21999;SDS011;11164;48.818;2.322;2022-09-17T17:46:57;3.97;;;0.90;;
21999;SDS011;11164;48.818;2.322;2022-09-17T17:49:22;3.20;;;0.80;;
21999;SDS011;11164;48.818;2.322;2022-09-17T17:51:47;3.42;;;1.02;;
21999;SDS011;11164;48.818;2.322;2022-09-17T17:54:13;2.78;;;0.95;;
21999;SDS011;11164;48.818;2.322;2022-09-17T17:56:38;2.92;;;0.90;;
21999;SDS011;11164;48.818;2.322;2022-09-17T17:59:04;3.20;;;0.90;;
21999;SDS011;11164;48.818;2.322;2022-09-17T18:01:31;2.20;;;0.80;;
21999;SDS011;11164;48.818;2.322;2022-09-17T18:03:59;2.38;;;0.90;;
21999;SDS011;11164;48.818;2.322;2022-09-17T18:06:29;5.05;;;0.95;;
21999;SDS011;11164;48.818;2.322;2022-09-17T18:08:55;5.80;;;1.10;;
21999;SDS011;11164;48.818;2.322;2022-09-17T18:11:21;3.13;;;0.75;;
21999;SDS011;11164;48.818;2.322;2022-09-17T18:13:49;2.42;;;0.88;;